sensor_id;sensor_type;location;lat;lon;timestamp;pressure;altitude;pressure_sealevel;temperature
64947;BMP280;51469;52.150;4.682;2023-04-30T00:02:20;102639.63;;;14.42
64947;BMP280;51469;52.150;4.682;2023-04-30T00:04:45;102630.66;;;14.45
64947;BMP280;51469;52.150;4.682;2023-04-30T00:07:11;102638.13;;;14.44
64947;BMP280;51469;52.150;4.682;2023-04-30T00:09:36;102637.31;;;14.44
64947;BMP280;51469;52.150;4.682;2023-04-30T00:12:02;102639.63;;;14.42
64947;BMP280;51469;52.150;4.682;2023-04-30T00:14:27;102639.28;;;14.43
64947;BMP280;51469;52.150;4.682;2023-04-30T00:16:53;102644.47;;;14.45
64947;BMP280;51469;52.150;4.682;2023-04-30T00:19:18;102652.28;;;14.43
64947;BMP280;51469;52.150;4.682;2023-04-30T00:21:43;102644.66;;;14.21
64947;BMP280;51469;52.150;4.682;2023-04-30T00:24:09;102645.53;;;14.25
64947;BMP280;51469;52.150;4.682;2023-04-30T00:26:34;102647.22;;;14.29
64947;BMP280;51469;52.150;4.682;2023-04-30T00:28:59;102653.53;;;14.30
64947;BMP280;51469;52.150;4.682;2023-04-30T00:31:25;102656.50;;;14.21
64947;BMP280;51469;52.150;4.682;2023-04-30T00:33:50;102656.59;;;14.25
64947;BMP280;51469;52.150;4.682;2023-04-30T00:36:16;102657.31;;;14.22
64947;BMP280;51469;52.150;4.682;2023-04-30T00:38:41;102667.91;;;14.20
64947;BMP280;51469;52.150;4.682;2023-04-30T00:41:06;102663.06;;;14.17
64947;BMP280;51469;52.150;4.682;2023-04-30T00:43:32;102666.53;;;14.14
64947;BMP280;51469;52.150;4.682;2023-04-30T00:45:58;102660.94;;;14.10
64947;BMP280;51469;52.150;4.682;2023-04-30T00:48:24;102667.97;;;14.08
64947;BMP280;51469;52.150;4.682;2023-04-30T00:50:50;102661.59;;;14.04
64947;BMP280;51469;52.150;4.682;2023-04-30T00:53:16;102653.53;;;13.99
64947;BMP280;51469;52.150;4.682;2023-04-30T00:55:42;102653.53;;;13.99
64947;BMP280;51469;52.150;4.682;2023-04-30T00:58:08;102659.75;;;13.96
64947;BMP280;51469;52.150;4.682;2023-04-30T01:00:33;102660.47;;;13.93
64947;BMP280;51469;52.150;4.682;2023-04-30T01:02:59;102648.56;;;13.89
64947;BMP280;51469;52.150;4.682;2023-04-30T01:05:25;102654.34;;;13.84
64947;BMP280;51469;52.150;4.682;2023-04-30T01:07:51;102658.59;;;13.81
64947;BMP280;51469;52.150;4.682;2023-04-30T01:10:18;102652.56;;;13.76
64947;BMP280;51469;52.150;4.682;2023-04-30T01:20:56;102649.78;;;13.76
64947;BMP280;51469;52.150;4.682;2023-04-30T01:23:27;102650.47;;;13.73
64947;BMP280;51469;52.150;4.682;2023-04-30T01:28:56;102650.19;;;13.62
64947;BMP280;51469;52.150;4.682;2023-04-30T01:31:23;102653.75;;;13.63
64947;BMP280;51469;52.150;4.682;2023-04-30T01:33:48;102657.66;;;13.62
64947;BMP280;51469;52.150;4.682;2023-04-30T01:36:34;102651.72;;;13.60
64947;BMP280;51469;52.150;4.682;2023-04-30T01:39:22;102660.25;;;13.55
64947;BMP280;51469;52.150;4.682;2023-04-30T01:50:14;102670.97;;;13.44
64947;BMP280;51469;52.150;4.682;2023-04-30T01:52:51;102671.50;;;13.50
64947;BMP280;51469;52.150;4.682;2023-04-30T01:55:20;102667.53;;;13.63
64947;BMP280;51469;52.150;4.682;2023-04-30T01:57:56;102669.16;;;13.64
64947;BMP280;51469;52.150;4.682;2023-04-30T02:00:26;102668.47;;;13.67
64947;BMP280;51469;52.150;4.682;2023-04-30T02:02:52;102670.75;;;13.65
64947;BMP280;51469;52.150;4.682;2023-04-30T02:05:18;102671.56;;;13.65
64947;BMP280;51469;52.150;4.682;2023-04-30T02:07:45;102671.63;;;13.53
64947;BMP280;51469;52.150;4.682;2023-04-30T02:10:12;102660.25;;;13.55
64947;BMP280;51469;52.150;4.682;2023-04-30T02:12:38;102660.78;;;13.60
64947;BMP280;51469;52.150;4.682;2023-04-30T02:15:04;102664.84;;;13.51
64947;BMP280;51469;52.150;4.682;2023-04-30T02:17:30;102664.38;;;13.61
64947;BMP280;51469;52.150;4.682;2023-04-30T02:19:56;102651.09;;;13.66
64947;BMP280;51469;52.150;4.682;2023-04-30T02:22:21;102651.91;;;13.67
64947;BMP280;51469;52.150;4.682;2023-04-30T02:24:47;102645.88;;;13.77
64947;BMP280;51469;52.150;4.682;2023-04-30T02:27:12;102647.47;;;13.78
64947;BMP280;51469;52.150;4.682;2023-04-30T02:29:38;102648.63;;;13.77
64947;BMP280;51469;52.150;4.682;2023-04-30T02:32:03;102649.78;;;13.76
64947;BMP280;51469;52.150;4.682;2023-04-30T02:34:29;102650.09;;;13.74
64947;BMP280;51469;52.150;4.682;2023-04-30T02:36:54;102657.22;;;13.60
64947;BMP280;51469;52.150;4.682;2023-04-30T02:39:19;102653.81;;;13.51
64947;BMP280;51469;52.150;4.682;2023-04-30T02:41:45;102647.88;;;13.49
64947;BMP280;51469;52.150;4.682;2023-04-30T02:44:11;102645.28;;;13.56
64947;BMP280;51469;52.150;4.682;2023-04-30T02:46:36;102660.94;;;13.52
64947;BMP280;51469;52.150;4.682;2023-04-30T02:49:01;102653.94;;;13.54
64947;BMP280;51469;52.150;4.682;2023-04-30T02:51:27;102654.81;;;13.58
64947;BMP280;51469;52.150;4.682;2023-04-30T02:53:52;102647.44;;;13.62
64947;BMP280;51469;52.150;4.682;2023-04-30T02:56:18;102621.16;;;13.53
64947;BMP280;51469;52.150;4.682;2023-04-30T02:58:43;102643.16;;;13.65
64947;BMP280;51469;52.150;4.682;2023-04-30T03:01:08;102643.25;;;13.68
64947;BMP280;51469;52.150;4.682;2023-04-30T03:03:34;102634.44;;;13.63
64947;BMP280;51469;52.150;4.682;2023-04-30T03:05:59;102640.75;;;13.63
64947;BMP280;51469;52.150;4.682;2023-04-30T03:08:25;102650.19;;;13.62
64947;BMP280;51469;52.150;4.682;2023-04-30T03:10:50;102647.00;;;13.60
64947;BMP280;51469;52.150;4.682;2023-04-30T03:13:16;102652.88;;;13.59
64947;BMP280;51469;52.150;4.682;2023-04-30T03:15:42;102655.97;;;13.57
64947;BMP280;51469;52.150;4.682;2023-04-30T03:18:07;102658.19;;;13.52
64947;BMP280;51469;52.150;4.682;2023-04-30T03:20:32;102654.06;;;13.46
64947;BMP280;51469;52.150;4.682;2023-04-30T03:22:58;102652.72;;;13.40
64947;BMP280;51469;52.150;4.682;2023-04-30T03:25:23;102647.88;;;13.37
64947;BMP280;51469;52.150;4.682;2023-04-30T03:27:49;102647.00;;;13.33
64947;BMP280;51469;52.150;4.682;2023-04-30T03:30:14;102647.00;;;13.33
64947;BMP280;51469;52.150;4.682;2023-04-30T03:32:39;102652.53;;;13.33
64947;BMP280;51469;52.150;4.682;2023-04-30T03:35:06;102653.53;;;13.40
64947;BMP280;51469;52.150;4.682;2023-04-30T03:37:32;102642.50;;;13.40
64947;BMP280;51469;52.150;4.682;2023-04-30T03:39:57;102642.22;;;13.45
64947;BMP280;51469;52.150;4.682;2023-04-30T03:42:23;102640.81;;;13.36
64947;BMP280;51469;52.150;4.682;2023-04-30T03:44:48;102639.00;;;13.28
64947;BMP280;51469;52.150;4.682;2023-04-30T03:47:13;102631.47;;;13.40
64947;BMP280;51469;52.150;4.682;2023-04-30T03:49:39;102626.84;;;13.44
64947;BMP280;51469;52.150;4.682;2023-04-30T03:52:04;102631.34;;;13.37
64947;BMP280;51469;52.150;4.682;2023-04-30T03:54:31;102640.00;;;13.35
64947;BMP280;51469;52.150;4.682;2023-04-30T03:56:58;102627.63;;;13.45
64947;BMP280;51469;52.150;4.682;2023-04-30T03:59:23;102637.50;;;13.30
64947;BMP280;51469;52.150;4.682;2023-04-30T04:01:50;102632.97;;;13.38
64947;BMP280;51469;52.150;4.682;2023-04-30T04:04:15;102629.72;;;13.48
64947;BMP280;51469;52.150;4.682;2023-04-30T04:06:41;102628.34;;;13.42
64947;BMP280;51469;52.150;4.682;2023-04-30T04:09:06;102621.44;;;13.48
64947;BMP280;51469;52.150;4.682;2023-04-30T04:11:32;102628.63;;;13.25
64947;BMP280;51469;52.150;4.682;2023-04-30T04:13:58;102620.50;;;12.89
64947;BMP280;51469;52.150;4.682;2023-04-30T04:16:24;102622.03;;;13.14
64947;BMP280;51469;52.150;4.682;2023-04-30T04:18:51;102627.25;;;13.31
64947;BMP280;51469;52.150;4.682;2023-04-30T04:21:17;102633.66;;;13.35
64947;BMP280;51469;52.150;4.682;2023-04-30T04:23:42;102630.84;;;13.47
64947;BMP280;51469;52.150;4.682;2023-04-30T04:26:07;102626.03;;;13.44
64947;BMP280;51469;52.150;4.682;2023-04-30T04:28:34;102621.13;;;13.37
64947;BMP280;51469;52.150;4.682;2023-04-30T04:31:01;102639.38;;;13.42
64947;BMP280;51469;52.150;4.682;2023-04-30T04:33:27;102625.13;;;13.40
64947;BMP280;51469;52.150;4.682;2023-04-30T04:35:53;102624.69;;;13.38
64947;BMP280;51469;52.150;4.682;2023-04-30T04:38:18;102627.25;;;13.31
64947;BMP280;51469;52.150;4.682;2023-04-30T04:40:51;102633.75;;;13.38
64947;BMP280;51469;52.150;4.682;2023-04-30T04:43:17;102641.75;;;13.43
64947;BMP280;51469;52.150;4.682;2023-04-30T04:45:42;102649.69;;;13.45
64947;BMP280;51469;52.150;4.682;2023-04-30T04:48:08;102649.03;;;13.48
64947;BMP280;51469;52.150;4.682;2023-04-30T04:50:33;102649.50;;;13.38
64947;BMP280;51469;52.150;4.682;2023-04-30T04:52:58;102648.56;;;13.46
64947;BMP280;51469;52.150;4.682;2023-04-30T04:55:24;102647.19;;;13.40
64947;BMP280;51469;52.150;4.682;2023-04-30T04:57:49;102641.16;;;13.50
64947;BMP280;51469;52.150;4.682;2023-04-30T05:00:14;102642.75;;;13.35
64947;BMP280;51469;52.150;4.682;2023-04-30T05:02:41;102642.59;;;13.44
64947;BMP280;51469;52.150;4.682;2023-04-30T05:05:07;102651.09;;;13.39
64947;BMP280;51469;52.150;4.682;2023-04-30T05:07:32;102653.56;;;13.56
64947;BMP280;51469;52.150;4.682;2023-04-30T05:09:59;102651.19;;;13.54
64947;BMP280;51469;52.150;4.682;2023-04-30T05:12:24;102649.59;;;13.41
64947;BMP280;51469;52.150;4.682;2023-04-30T05:14:49;102654.00;;;13.58
64947;BMP280;51469;52.150;4.682;2023-04-30T05:17:15;102645.84;;;13.61
64947;BMP280;51469;52.150;4.682;2023-04-30T05:19:40;102652.25;;;13.65
64947;BMP280;51469;52.150;4.682;2023-04-30T05:22:06;102647.97;;;13.68
64947;BMP280;51469;52.150;4.682;2023-04-30T05:24:31;102659.00;;;13.68
64947;BMP280;51469;52.150;4.682;2023-04-30T05:26:56;102660.63;;;13.69
64947;BMP280;51469;52.150;4.682;2023-04-30T05:29:22;102656.63;;;13.66
64947;BMP280;51469;52.150;4.682;2023-04-30T05:31:47;102659.94;;;13.72
64947;BMP280;51469;52.150;4.682;2023-04-30T05:34:13;102656.38;;;13.87
64947;BMP280;51469;52.150;4.682;2023-04-30T05:36:38;102650.97;;;13.63
64947;BMP280;51469;52.150;4.682;2023-04-30T05:39:03;102654.59;;;13.79
64947;BMP280;51469;52.150;4.682;2023-04-30T05:41:29;102648.88;;;13.72
64947;BMP280;51469;52.150;4.682;2023-04-30T05:43:54;102661.25;;;13.78
64947;BMP280;51469;52.150;4.682;2023-04-30T05:46:20;102666.97;;;13.85
64947;BMP280;51469;52.150;4.682;2023-04-30T05:48:45;102677.34;;;14.03
64947;BMP280;51469;52.150;4.682;2023-04-30T05:51:10;102669.56;;;14.09
64947;BMP280;51469;52.150;4.682;2023-04-30T05:53:36;102670.47;;;14.13
64947;BMP280;51469;52.150;4.682;2023-04-30T05:56:02;102679.22;;;14.15
64947;BMP280;51469;52.150;4.682;2023-04-30T05:58:27;102674.81;;;13.98
64947;BMP280;51469;52.150;4.682;2023-04-30T06:00:52;102678.56;;;13.90
64947;BMP280;51469;52.150;4.682;2023-04-30T06:03:18;102671.16;;;13.79
64947;BMP280;51469;52.150;4.682;2023-04-30T06:05:45;102679.25;;;13.87
64947;BMP280;51469;52.150;4.682;2023-04-30T06:08:10;102681.31;;;14.06
64947;BMP280;51469;52.150;4.682;2023-04-30T06:10:36;102670.72;;;14.23
64947;BMP280;51469;52.150;4.682;2023-04-30T06:13:02;102684.19;;;14.25
64947;BMP280;51469;52.150;4.682;2023-04-30T06:15:27;102682.75;;;14.31
64947;BMP280;51469;52.150;4.682;2023-04-30T06:17:53;102684.31;;;14.63
64947;BMP280;51469;52.150;4.682;2023-04-30T06:20:18;102681.13;;;14.61
64947;BMP280;51469;52.150;4.682;2023-04-30T06:22:43;102660.50;;;14.58
64947;BMP280;51469;52.150;4.682;2023-04-30T06:25:09;102677.19;;;14.62
64947;BMP280;51469;52.150;4.682;2023-04-30T06:27:34;102680.84;;;15.01
64947;BMP280;51469;52.150;4.682;2023-04-30T06:29:59;102677.13;;;15.31
64947;BMP280;51469;52.150;4.682;2023-04-30T06:32:25;102673.66;;;15.34
64947;BMP280;51469;52.150;4.682;2023-04-30T06:34:51;102676.56;;;15.41
64947;BMP280;51469;52.150;4.682;2023-04-30T06:37:16;102683.19;;;15.59
64947;BMP280;51469;52.150;4.682;2023-04-30T06:39:43;102670.81;;;15.72
64947;BMP280;51469;52.150;4.682;2023-04-30T06:42:08;102670.56;;;15.81
64947;BMP280;51469;52.150;4.682;2023-04-30T06:44:34;102678.53;;;15.63
64947;BMP280;51469;52.150;4.682;2023-04-30T06:46:59;102685.06;;;15.74
64947;BMP280;51469;52.150;4.682;2023-04-30T06:49:24;102688.75;;;15.59
64947;BMP280;51469;52.150;4.682;2023-04-30T06:51:50;102682.00;;;15.79
64947;BMP280;51469;52.150;4.682;2023-04-30T06:54:15;102680.25;;;15.90
64947;BMP280;51469;52.150;4.682;2023-04-30T06:56:40;102684.59;;;15.91
64947;BMP280;51469;52.150;4.682;2023-04-30T06:59:07;102686.59;;;16.13
64947;BMP280;51469;52.150;4.682;2023-04-30T07:01:33;102681.91;;;16.43
64947;BMP280;51469;52.150;4.682;2023-04-30T07:03:58;102683.56;;;16.48
64947;BMP280;51469;52.150;4.682;2023-04-30T07:06:24;102674.56;;;16.54
64947;BMP280;51469;52.150;4.682;2023-04-30T07:08:50;102686.38;;;16.51
64947;BMP280;51469;52.150;4.682;2023-04-30T07:11:15;102691.69;;;16.37
64947;BMP280;51469;52.150;4.682;2023-04-30T07:13:41;102694.31;;;16.53
64947;BMP280;51469;52.150;4.682;2023-04-30T07:16:06;102690.63;;;16.71
64947;BMP280;51469;52.150;4.682;2023-04-30T07:18:33;102682.22;;;16.64
64947;BMP280;51469;52.150;4.682;2023-04-30T07:20:59;102686.00;;;16.53
64947;BMP280;51469;52.150;4.682;2023-04-30T07:23:25;102685.19;;;16.78
64947;BMP280;51469;52.150;4.682;2023-04-30T07:25:50;102691.44;;;16.72
64947;BMP280;51469;52.150;4.682;2023-04-30T07:28:15;102691.00;;;16.99
64947;BMP280;51469;52.150;4.682;2023-04-30T07:30:41;102681.03;;;17.24
64947;BMP280;51469;52.150;4.682;2023-04-30T07:33:06;102685.91;;;17.34
64947;BMP280;51469;52.150;4.682;2023-04-30T07:35:33;102682.81;;;17.42
64947;BMP280;51469;52.150;4.682;2023-04-30T07:37:58;102675.44;;;17.21
64947;BMP280;51469;52.150;4.682;2023-04-30T07:40:23;102678.38;;;17.35
64947;BMP280;51469;52.150;4.682;2023-04-30T07:42:49;102687.34;;;17.21
64947;BMP280;51469;52.150;4.682;2023-04-30T07:45:14;102681.56;;;17.37
64947;BMP280;51469;52.150;4.682;2023-04-30T07:47:39;102676.41;;;17.75
64947;BMP280;51469;52.150;4.682;2023-04-30T07:50:05;102670.44;;;17.73
64947;BMP280;51469;52.150;4.682;2023-04-30T07:52:31;102687.34;;;18.01
64947;BMP280;51469;52.150;4.682;2023-04-30T07:54:56;102686.75;;;18.25
64947;BMP280;51469;52.150;4.682;2023-04-30T07:57:21;102690.13;;;18.01
64947;BMP280;51469;52.150;4.682;2023-04-30T07:59:47;102682.69;;;18.12
64947;BMP280;51469;52.150;4.682;2023-04-30T08:02:12;102681.09;;;18.11
64947;BMP280;51469;52.150;4.682;2023-04-30T08:04:37;102676.50;;;17.85
64947;BMP280;51469;52.150;4.682;2023-04-30T08:07:03;102673.06;;;17.99
64947;BMP280;51469;52.150;4.682;2023-04-30T08:09:28;102676.19;;;17.94
64947;BMP280;51469;52.150;4.682;2023-04-30T08:11:54;102681.56;;;18.20
64947;BMP280;51469;52.150;4.682;2023-04-30T08:14:19;102672.94;;;18.39
64947;BMP280;51469;52.150;4.682;2023-04-30T08:16:45;102675.75;;;18.46
64947;BMP280;51469;52.150;4.682;2023-04-30T08:19:11;102672.59;;;18.44
64947;BMP280;51469;52.150;4.682;2023-04-30T08:21:36;102674.31;;;18.66
64947;BMP280;51469;52.150;4.682;2023-04-30T08:24:02;102674.13;;;18.38
64947;BMP280;51469;52.150;4.682;2023-04-30T08:26:27;102673.44;;;18.58
64947;BMP280;51469;52.150;4.682;2023-04-30T08:28:53;102686.31;;;18.84
64947;BMP280;51469;52.150;4.682;2023-04-30T08:31:18;102679.81;;;18.62
64947;BMP280;51469;52.150;4.682;2023-04-30T08:33:43;102678.25;;;18.68
64947;BMP280;51469;52.150;4.682;2023-04-30T08:36:09;102687.94;;;18.95
64947;BMP280;51469;52.150;4.682;2023-04-30T08:38:35;102682.81;;;19.01
64947;BMP280;51469;52.150;4.682;2023-04-30T08:43:33;102678.81;;;19.02
64947;BMP280;51469;52.150;4.682;2023-04-30T08:45:59;102662.09;;;18.84
64947;BMP280;51469;52.150;4.682;2023-04-30T08:48:26;102677.28;;;19.15
64947;BMP280;51469;52.150;4.682;2023-04-30T08:50:52;102677.59;;;19.03
64947;BMP280;51469;52.150;4.682;2023-04-30T08:53:18;102678.50;;;19.28
64947;BMP280;51469;52.150;4.682;2023-04-30T08:55:46;102678.47;;;19.21
64947;BMP280;51469;52.150;4.682;2023-04-30T08:58:11;102679.31;;;19.32
64947;BMP280;51469;52.150;4.682;2023-04-30T09:00:38;102679.34;;;19.49
64947;BMP280;51469;52.150;4.682;2023-04-30T09:03:07;102678.13;;;19.40
64947;BMP280;51469;52.150;4.682;2023-04-30T09:05:32;102665.78;;;19.20
64947;BMP280;51469;52.150;4.682;2023-04-30T09:07:58;102671.59;;;18.87
64947;BMP280;51469;52.150;4.682;2023-04-30T09:10:23;102661.00;;;19.31
64947;BMP280;51469;52.150;4.682;2023-04-30T09:12:59;102666.63;;;19.48
64947;BMP280;51469;52.150;4.682;2023-04-30T09:15:26;102657.06;;;19.77
64947;BMP280;51469;52.150;4.682;2023-04-30T09:20:36;102666.63;;;20.01
64947;BMP280;51469;52.150;4.682;2023-04-30T09:23:09;102658.66;;;20.03
64947;BMP280;51469;52.150;4.682;2023-04-30T09:25:41;102668.94;;;20.37
64947;BMP280;51469;52.150;4.682;2023-04-30T09:28:11;102671.31;;;20.46
64947;BMP280;51469;52.150;4.682;2023-04-30T09:30:38;102670.50;;;20.35
64947;BMP280;51469;52.150;4.682;2023-04-30T09:33:03;102660.63;;;20.13
64947;BMP280;51469;52.150;4.682;2023-04-30T09:35:31;102651.50;;;19.74
64947;BMP280;51469;52.150;4.682;2023-04-30T09:37:58;102655.41;;;20.15
64947;BMP280;51469;52.150;4.682;2023-04-30T09:40:37;102657.81;;;20.20
64947;BMP280;51469;52.150;4.682;2023-04-30T09:43:04;102653.03;;;20.20
64947;BMP280;51469;52.150;4.682;2023-04-30T09:45:43;102650.66;;;20.26
64947;BMP280;51469;52.150;4.682;2023-04-30T09:48:16;102654.53;;;20.49
64947;BMP280;51469;52.150;4.682;2023-04-30T09:50:42;102649.84;;;20.29
64947;BMP280;51469;52.150;4.682;2023-04-30T09:53:10;102657.25;;;20.63
64947;BMP280;51469;52.150;4.682;2023-04-30T09:55:43;102652.50;;;20.64
64947;BMP280;51469;52.150;4.682;2023-04-30T09:58:10;102645.72;;;20.65
64947;BMP280;51469;52.150;4.682;2023-04-30T10:00:37;102652.28;;;20.13
64947;BMP280;51469;52.150;4.682;2023-04-30T10:03:08;102638.66;;;20.36
64947;BMP280;51469;52.150;4.682;2023-04-30T10:05:40;102644.09;;;20.67
64947;BMP280;51469;52.150;4.682;2023-04-30T10:08:09;102635.69;;;20.78
64947;BMP280;51469;52.150;4.682;2023-04-30T10:10:39;102642.81;;;20.86
64947;BMP280;51469;52.150;4.682;2023-04-30T10:13:10;102621.63;;;20.95
64947;BMP280;51469;52.150;4.682;2023-04-30T10:15:43;102638.47;;;20.81
64947;BMP280;51469;52.150;4.682;2023-04-30T10:18:13;102630.63;;;20.59
64947;BMP280;51469;52.150;4.682;2023-04-30T10:20:40;102634.47;;;20.82
64947;BMP280;51469;52.150;4.682;2023-04-30T10:23:06;102626.44;;;20.88
64947;BMP280;51469;52.150;4.682;2023-04-30T10:25:32;102625.88;;;20.35
64947;BMP280;51469;52.150;4.682;2023-04-30T10:27:58;102617.69;;;20.89
64947;BMP280;51469;52.150;4.682;2023-04-30T10:30:23;102617.66;;;20.93
64947;BMP280;51469;52.150;4.682;2023-04-30T10:36:00;102608.16;;;20.87
64947;BMP280;51469;52.150;4.682;2023-04-30T10:38:29;102615.16;;;21.09
64947;BMP280;51469;52.150;4.682;2023-04-30T10:40:59;102613.56;;;21.15
64947;BMP280;51469;52.150;4.682;2023-04-30T10:43:30;102604.06;;;21.02
64947;BMP280;51469;52.150;4.682;2023-04-30T10:45:57;102611.03;;;21.31
64947;BMP280;51469;52.150;4.682;2023-04-30T10:48:22;102605.53;;;21.17
64947;BMP280;51469;52.150;4.682;2023-04-30T10:50:59;102608.16;;;21.82
64947;BMP280;51469;52.150;4.682;2023-04-30T10:53:25;102600.28;;;21.70
64947;BMP280;51469;52.150;4.682;2023-04-30T10:55:57;102603.94;;;22.04
64947;BMP280;51469;52.150;4.682;2023-04-30T10:58:29;102594.94;;;21.86
64947;BMP280;51469;52.150;4.682;2023-04-30T11:01:12;102583.09;;;21.31
64947;BMP280;51469;52.150;4.682;2023-04-30T11:03:40;102587.53;;;21.69
64947;BMP280;51469;52.150;4.682;2023-04-30T11:06:10;102580.69;;;21.33
64947;BMP280;51469;52.150;4.682;2023-04-30T11:08:36;102583.38;;;21.84
64947;BMP280;51469;52.150;4.682;2023-04-30T11:11:02;102580.41;;;21.98
64947;BMP280;51469;52.150;4.682;2023-04-30T11:13:45;102577.31;;;22.22
64947;BMP280;51469;52.150;4.682;2023-04-30T11:16:11;102566.63;;;22.44
64947;BMP280;51469;52.150;4.682;2023-04-30T11:18:43;102562.91;;;22.24
64947;BMP280;51469;52.150;4.682;2023-04-30T11:21:09;102568.88;;;22.56
64947;BMP280;51469;52.150;4.682;2023-04-30T11:23:35;102563.50;;;22.68
64947;BMP280;51469;52.150;4.682;2023-04-30T11:26:01;102554.84;;;22.86
64947;BMP280;51469;52.150;4.682;2023-04-30T11:28:28;102548.44;;;22.85
64947;BMP280;51469;52.150;4.682;2023-04-30T11:30:59;102552.75;;;22.07
64947;BMP280;51469;52.150;4.682;2023-04-30T11:33:29;102551.00;;;22.20
64947;BMP280;51469;52.150;4.682;2023-04-30T11:35:56;102549.47;;;22.15
64947;BMP280;51469;52.150;4.682;2023-04-30T11:38:27;102544.47;;;22.30
64947;BMP280;51469;52.150;4.682;2023-04-30T11:40:54;102550.50;;;22.55
64947;BMP280;51469;52.150;4.682;2023-04-30T11:43:24;102549.19;;;22.63
64947;BMP280;51469;52.150;4.682;2023-04-30T11:46:00;102532.22;;;21.87
64947;BMP280;51469;52.150;4.682;2023-04-30T11:48:33;102531.88;;;22.15
64947;BMP280;51469;52.150;4.682;2023-04-30T11:50:59;102530.91;;;22.28
64947;BMP280;51469;52.150;4.682;2023-04-30T11:53:27;102526.72;;;21.80
64947;BMP280;51469;52.150;4.682;2023-04-30T11:55:53;102528.75;;;22.09
64947;BMP280;51469;52.150;4.682;2023-04-30T11:58:19;102533.97;;;22.64
64947;BMP280;51469;52.150;4.682;2023-04-30T12:00:45;102524.25;;;22.94
64947;BMP280;51469;52.150;4.682;2023-04-30T12:03:13;102522.53;;;23.04
64947;BMP280;51469;52.150;4.682;2023-04-30T12:05:39;102512.91;;;22.56
64947;BMP280;51469;52.150;4.682;2023-04-30T12:08:09;102514.03;;;22.84
64947;BMP280;51469;52.150;4.682;2023-04-30T12:10:35;102511.72;;;23.25
64947;BMP280;51469;52.150;4.682;2023-04-30T12:13:01;102512.84;;;23.51
64947;BMP280;51469;52.150;4.682;2023-04-30T12:15:27;102511.06;;;23.80
64947;BMP280;51469;52.150;4.682;2023-04-30T12:17:54;102503.81;;;23.43
64947;BMP280;51469;52.150;4.682;2023-04-30T12:20:21;102502.16;;;23.65
64947;BMP280;51469;52.150;4.682;2023-04-30T12:22:47;102492.19;;;24.00
64947;BMP280;51469;52.150;4.682;2023-04-30T12:25:15;102493.78;;;23.81
64947;BMP280;51469;52.150;4.682;2023-04-30T12:27:44;102499.56;;;23.74
64947;BMP280;51469;52.150;4.682;2023-04-30T12:30:11;102494.34;;;23.53
64947;BMP280;51469;52.150;4.682;2023-04-30T12:32:42;102495.84;;;23.61
64947;BMP280;51469;52.150;4.682;2023-04-30T12:35:12;102488.91;;;23.85
64947;BMP280;51469;52.150;4.682;2023-04-30T12:37:45;102483.69;;;23.87
64947;BMP280;51469;52.150;4.682;2023-04-30T12:40:12;102486.50;;;24.03
64947;BMP280;51469;52.150;4.682;2023-04-30T12:42:39;102493.16;;;23.74
64947;BMP280;51469;52.150;4.682;2023-04-30T12:45:05;102481.22;;;23.89
64947;BMP280;51469;52.150;4.682;2023-04-30T12:47:31;102472.06;;;23.85
64947;BMP280;51469;52.150;4.682;2023-04-30T12:49:57;102470.94;;;24.34
64947;BMP280;51469;52.150;4.682;2023-04-30T12:52:24;102471.53;;;23.74
64947;BMP280;51469;52.150;4.682;2023-04-30T12:54:50;102471.50;;;23.35
64947;BMP280;51469;52.150;4.682;2023-04-30T12:57:16;102464.41;;;22.88
64947;BMP280;51469;52.150;4.682;2023-04-30T13:02:16;102457.78;;;23.80
64947;BMP280;51469;52.150;4.682;2023-04-30T13:04:42;102452.47;;;24.01
64947;BMP280;51469;52.150;4.682;2023-04-30T13:07:08;102451.88;;;24.26
64947;BMP280;51469;52.150;4.682;2023-04-30T13:09:35;102456.88;;;24.02
64947;BMP280;51469;52.150;4.682;2023-04-30T13:12:01;102452.16;;;23.44
64947;BMP280;51469;52.150;4.682;2023-04-30T13:14:28;102444.44;;;24.03
64947;BMP280;51469;52.150;4.682;2023-04-30T13:16:53;102443.09;;;23.92
64947;BMP280;51469;52.150;4.682;2023-04-30T13:19:19;102430.94;;;24.62
64947;BMP280;51469;52.150;4.682;2023-04-30T13:21:45;102434.44;;;24.82
64947;BMP280;51469;52.150;4.682;2023-04-30T13:24:10;102431.53;;;24.54
64947;BMP280;51469;52.150;4.682;2023-04-30T13:26:36;102442.09;;;24.34
64947;BMP280;51469;52.150;4.682;2023-04-30T13:29:02;102430.97;;;24.30
64947;BMP280;51469;52.150;4.682;2023-04-30T13:31:28;102430.59;;;24.44
64947;BMP280;51469;52.150;4.682;2023-04-30T13:33:54;102427.44;;;24.42
64947;BMP280;51469;52.150;4.682;2023-04-30T13:36:19;102420.63;;;24.27
64947;BMP280;51469;52.150;4.682;2023-04-30T13:38:45;102419.38;;;24.44
64947;BMP280;51469;52.150;4.682;2023-04-30T13:41:10;102408.75;;;24.68
64947;BMP280;51469;52.150;4.682;2023-04-30T13:43:36;102415.00;;;25.16
64947;BMP280;51469;52.150;4.682;2023-04-30T13:46:03;102413.75;;;24.76
64947;BMP280;51469;52.150;4.682;2023-04-30T13:48:29;102407.81;;;24.10
64947;BMP280;51469;52.150;4.682;2023-04-30T13:50:54;102406.41;;;24.18
64947;BMP280;51469;52.150;4.682;2023-04-30T13:53:19;102407.81;;;24.26
64947;BMP280;51469;52.150;4.682;2023-04-30T13:55:45;102413.34;;;23.78
64947;BMP280;51469;52.150;4.682;2023-04-30T13:58:11;102407.81;;;23.75
64947;BMP280;51469;52.150;4.682;2023-04-30T14:00:37;102406.47;;;23.83
64947;BMP280;51469;52.150;4.682;2023-04-30T14:03:02;102408.47;;;23.98
64947;BMP280;51469;52.150;4.682;2023-04-30T14:05:28;102400.88;;;23.83
64947;BMP280;51469;52.150;4.682;2023-04-30T14:07:54;102395.53;;;24.04
64947;BMP280;51469;52.150;4.682;2023-04-30T14:10:19;102393.78;;;24.42
64947;BMP280;51469;52.150;4.682;2023-04-30T14:12:44;102387.56;;;24.67
64947;BMP280;51469;52.150;4.682;2023-04-30T14:15:10;102388.28;;;24.67
64947;BMP280;51469;52.150;4.682;2023-04-30T14:17:35;102381.50;;;24.52
64947;BMP280;51469;52.150;4.682;2023-04-30T14:20:01;102377.88;;;24.96
64947;BMP280;51469;52.150;4.682;2023-04-30T14:22:26;102379.22;;;24.63
64947;BMP280;51469;52.150;4.682;2023-04-30T14:24:52;102371.25;;;24.74